createdAt,value
2022-08-06T00:00:09.116Z,100.00
2022-08-06T00:02:36.666Z,100.00
2022-08-06T00:05:05.825Z,100.00
2022-08-06T00:07:44.764Z,100.00
2022-08-06T00:10:12.128Z,100.00
2022-08-06T00:12:40.296Z,100.00
2022-08-06T00:15:13.204Z,100.00
2022-08-06T00:17:43.850Z,100.00
2022-08-06T00:20:10.927Z,100.00
2022-08-06T00:22:37.671Z,100.00
2022-08-06T00:25:04.711Z,100.00
2022-08-06T00:27:39.067Z,100.00
2022-08-06T00:30:14.828Z,100.00
2022-08-06T00:32:45.159Z,100.00
2022-08-06T00:35:12.821Z,100.00
2022-08-06T00:37:54.585Z,100.00
2022-08-06T00:40:25.060Z,100.00
2022-08-06T00:42:54.600Z,100.00
2022-08-06T00:45:24.488Z,100.00
2022-08-06T00:48:03.167Z,100.00
2022-08-06T00:50:31.359Z,100.00
2022-08-06T00:52:57.851Z,100.00
2022-08-06T00:55:31.412Z,100.00
2022-08-06T00:58:01.954Z,100.00
2022-08-06T01:00:30.156Z,100.00
2022-08-06T01:02:57.072Z,100.00
2022-08-06T01:06:03.830Z,100.00
2022-08-06T01:08:09.983Z,100.00
2022-08-06T01:10:42.343Z,100.00
2022-08-06T01:13:25.020Z,100.00
2022-08-06T01:16:11.290Z,100.00
2022-08-06T01:18:58.963Z,100.00
2022-08-06T01:22:29.868Z,100.00
2022-08-06T01:24:38.597Z,100.00
2022-08-06T01:27:34.898Z,100.00
2022-08-06T01:30:04.687Z,100.00
2022-08-06T01:32:36.751Z,100.00
2022-08-06T01:35:23.191Z,100.00
2022-08-06T01:38:06.630Z,100.00
2022-08-06T01:40:37.964Z,100.00
2022-08-06T01:43:22.813Z,100.00
2022-08-06T01:45:55.404Z,100.00
2022-08-06T01:48:28.481Z,100.00
2022-08-06T01:50:58.133Z,100.00
2022-08-06T01:53:59.040Z,100.00
2022-08-06T01:56:25.969Z,100.00
2022-08-06T01:58:59.688Z,100.00
2022-08-06T02:01:27.675Z,100.00
2022-08-06T02:04:16.654Z,100.00
2022-08-06T02:06:44.849Z,100.00
2022-08-06T02:09:22.386Z,100.00
2022-08-06T02:12:19.603Z,100.00
2022-08-06T02:14:51.261Z,100.00
2022-08-06T02:17:18.614Z,100.00
2022-08-06T02:20:18.346Z,100.00
2022-08-06T02:22:45.649Z,100.00
2022-08-06T02:25:15.001Z,100.00
2022-08-06T02:27:56.752Z,100.00
2022-08-06T02:30:34.648Z,100.00
2022-08-06T02:33:03.336Z,100.00
2022-08-06T02:35:37.169Z,100.00
2022-08-06T02:38:09.042Z,100.00
2022-08-06T02:40:43.796Z,100.00
2022-08-06T02:43:14.828Z,100.00
2022-08-06T02:45:59.127Z,100.00
2022-08-06T02:48:37.823Z,100.00
2022-08-06T02:51:43.237Z,100.00
2022-08-06T02:54:04.304Z,100.00
2022-08-06T02:56:32.136Z,100.00
2022-08-06T02:58:59.596Z,100.00
2022-08-06T03:01:43.008Z,100.00
2022-08-06T03:04:10.125Z,100.00
2022-08-06T03:06:38.145Z,100.00
2022-08-06T03:09:05.602Z,100.00
2022-08-06T03:11:34.423Z,100.00
2022-08-06T03:14:13.118Z,100.00
2022-08-06T03:16:53.065Z,100.00
2022-08-06T03:19:54.330Z,100.00
2022-08-06T03:22:18.495Z,100.00
2022-08-06T03:24:45.783Z,100.00
2022-08-06T03:27:16.771Z,100.00
2022-08-06T03:29:46.109Z,100.00
2022-08-06T03:32:36.168Z,100.00
2022-08-06T03:35:00.662Z,100.00
2022-08-06T03:37:45.282Z,100.00
2022-08-06T03:40:15.237Z,100.00
2022-08-06T03:42:46.459Z,100.00
2022-08-06T03:45:35.540Z,100.00
2022-08-06T03:48:07.376Z,100.00
2022-08-06T03:50:37.455Z,100.00
2022-08-06T03:53:10.488Z,100.00
2022-08-06T03:55:39.236Z,100.00
2022-08-06T03:58:08.691Z,100.00
2022-08-06T04:00:39.560Z,100.00
2022-08-06T04:03:06.576Z,100.00
2022-08-06T04:05:35.040Z,100.00
2022-08-06T04:08:09.959Z,100.00
2022-08-06T04:10:42.999Z,100.00
2022-08-06T04:14:03.841Z,100.00
2022-08-06T04:16:13.084Z,100.00
2022-08-06T04:18:42.770Z,100.00
2022-08-06T04:21:20.906Z,100.00
2022-08-06T04:23:57.789Z,100.00
2022-08-06T04:26:25.134Z,100.00
2022-08-06T04:28:57.976Z,100.00
2022-08-06T04:32:11.355Z,100.00
2022-08-06T04:34:12.668Z,100.00
2022-08-06T04:36:39.223Z,100.00
2022-08-06T04:39:08.929Z,100.00
2022-08-06T04:41:41.646Z,100.00
2022-08-06T04:44:13.580Z,100.00
2022-08-06T04:46:41.031Z,100.00
2022-08-06T04:49:07.789Z,100.00
2022-08-06T04:52:46.315Z,100.00
2022-08-06T04:54:27.672Z,100.00
2022-08-06T04:56:54.294Z,100.00
2022-08-06T04:59:21.773Z,100.00
2022-08-06T05:01:57.100Z,100.00
2022-08-06T05:04:28.684Z,100.00
2022-08-06T05:07:02.395Z,100.00
2022-08-06T05:09:42.426Z,100.00
2022-08-06T05:12:16.853Z,100.00
2022-08-06T05:14:49.685Z,100.00
2022-08-06T05:17:18.176Z,100.00
2022-08-06T05:19:51.277Z,100.00
2022-08-06T05:22:19.751Z,100.00
2022-08-06T05:25:14.747Z,100.00
2022-08-06T05:28:03.486Z,100.00
2022-08-06T05:30:29.181Z,100.00
2022-08-06T05:32:56.712Z,100.00
2022-08-06T05:35:23.331Z,100.00
2022-08-06T05:38:07.080Z,100.00
2022-08-06T05:40:53.837Z,100.00
2022-08-06T05:43:24.028Z,100.00
2022-08-06T05:45:54.409Z,100.00
2022-08-06T05:48:29.157Z,100.00
2022-08-06T05:51:06.730Z,100.00
2022-08-06T05:54:03.562Z,100.00
2022-08-06T05:56:38.173Z,100.00
2022-08-06T05:59:07.407Z,100.00
2022-08-06T06:01:54.467Z,100.00
2022-08-06T06:04:21.559Z,100.00
2022-08-06T06:06:59.610Z,100.00
2022-08-06T06:09:56.745Z,100.00
2022-08-06T06:12:17.898Z,100.00
2022-08-06T06:14:46.490Z,100.00
2022-08-06T06:17:39.631Z,100.00
2022-08-06T06:20:09.903Z,100.00
2022-08-06T06:22:57.238Z,100.00
2022-08-06T06:25:36.833Z,100.00
2022-08-06T06:28:09.300Z,100.00
2022-08-06T06:31:11.997Z,100.00
2022-08-06T06:33:51.457Z,100.00
2022-08-06T06:36:26.359Z,100.00
2022-08-06T06:39:11.744Z,100.00
2022-08-06T06:41:44.589Z,100.00
2022-08-06T06:45:03.717Z,100.00
2022-08-06T06:47:18.659Z,100.00
2022-08-06T06:50:08.456Z,100.00
2022-08-06T06:52:36.224Z,100.00
2022-08-06T06:55:11.941Z,100.00
2022-08-06T06:57:45.939Z,100.00
2022-08-06T07:00:45.256Z,100.00
2022-08-06T07:03:00.742Z,100.00
2022-08-06T07:06:02.773Z,100.00
2022-08-06T07:08:16.048Z,100.00
2022-08-06T07:10:58.437Z,100.00
2022-08-06T07:13:46.921Z,100.00
2022-08-06T07:16:34.967Z,100.00
2022-08-06T07:19:01.222Z,100.00
2022-08-06T07:21:28.076Z,100.00
2022-08-06T07:24:06.545Z,100.00
2022-08-06T07:26:36.488Z,100.00
2022-08-06T07:29:48.453Z,100.00
2022-08-06T07:32:03.744Z,100.00
2022-08-06T07:34:32.061Z,100.00
2022-08-06T07:37:00.900Z,100.00
2022-08-06T07:39:34.958Z,100.00
2022-08-06T07:42:07.900Z,100.00
2022-08-06T07:44:54.760Z,100.00
2022-08-06T07:47:37.103Z,100.00
2022-08-06T07:50:13.515Z,100.00
2022-08-06T07:52:42.683Z,100.00
2022-08-06T07:55:11.542Z,100.00
2022-08-06T07:57:54.154Z,100.00
2022-08-06T08:00:22.718Z,100.00
2022-08-06T08:03:08.177Z,100.00
2022-08-06T08:06:00.455Z,100.00
2022-08-06T08:08:27.903Z,100.00
2022-08-06T08:10:55.107Z,100.00
2022-08-06T08:13:28.117Z,100.00
2022-08-06T08:16:08.679Z,100.00
2022-08-06T08:18:35.457Z,100.00
2022-08-06T08:21:04.229Z,100.00
2022-08-06T08:23:37.457Z,100.00
2022-08-06T08:26:08.882Z,100.00
2022-08-06T08:28:38.283Z,100.00
2022-08-06T08:31:15.639Z,100.00
2022-08-06T08:33:52.156Z,100.00
2022-08-06T08:36:22.026Z,100.00
2022-08-06T08:39:00.485Z,100.00
2022-08-06T08:41:49.301Z,100.00
2022-08-06T08:44:28.729Z,100.00
2022-08-06T08:46:59.416Z,100.00
2022-08-06T08:49:25.972Z,100.00
2022-08-06T08:51:53.803Z,100.00
2022-08-06T08:54:23.237Z,100.00
2022-08-06T08:57:08.113Z,100.00
2022-08-06T08:59:59.866Z,100.00
2022-08-06T09:02:24.718Z,100.00
2022-08-06T09:04:51.814Z,100.00
2022-08-06T09:07:19.338Z,100.00
2022-08-06T09:10:03.499Z,100.00
2022-08-06T09:12:34.282Z,100.00
2022-08-06T09:15:01.118Z,100.00
2022-08-06T09:18:25.763Z,100.00
2022-08-06T09:20:16.809Z,100.00
2022-08-06T09:22:51.853Z,100.00
2022-08-06T09:25:51.610Z,100.00
2022-08-06T09:28:27.624Z,100.00
2022-08-06T09:30:59.910Z,100.00
2022-08-06T09:34:19.200Z,100.00
2022-08-06T09:36:15.405Z,100.00
2022-08-06T09:39:00.658Z,100.00
2022-08-06T09:41:29.020Z,100.00
2022-08-06T09:44:04.386Z,100.00
2022-08-06T09:46:41.982Z,100.00
2022-08-06T09:49:45.839Z,91.67
2022-08-06T09:52:13.489Z,93.42
2022-08-06T09:54:40.239Z,90.22
2022-08-06T09:57:06.572Z,100.00
2022-08-06T09:59:50.057Z,93.68
2022-08-06T10:02:18.718Z,93.70
2022-08-06T10:04:50.634Z,89.59
2022-08-06T10:07:29.102Z,80.03
2022-08-06T10:10:07.870Z,69.98
2022-08-06T10:12:35.926Z,73.92
2022-08-06T10:15:04.641Z,70.92
2022-08-06T10:17:49.628Z,71.67
2022-08-06T10:20:19.480Z,66.68
2022-08-06T10:22:58.221Z,69.71
2022-08-06T10:25:29.617Z,70.25
2022-08-06T10:27:57.130Z,69.01
2022-08-06T10:30:23.901Z,62.43
2022-08-06T10:32:59.195Z,58.10
2022-08-06T10:35:27.472Z,56.22
2022-08-06T10:38:03.274Z,58.13
2022-08-06T10:40:31.522Z,51.16
2022-08-06T10:43:00.364Z,51.50
2022-08-06T10:45:27.754Z,51.03
2022-08-06T10:49:00.718Z,50.24
2022-08-06T10:50:55.925Z,50.78
2022-08-06T10:54:02.131Z,51.32
2022-08-06T10:56:12.322Z,50.18
2022-08-06T10:58:39.374Z,46.92
2022-08-06T11:01:36.513Z,45.95
2022-08-06T11:04:24.038Z,45.45
2022-08-06T11:06:53.083Z,44.55
2022-08-06T11:09:59.300Z,43.07
2022-08-06T11:12:27.135Z,43.88
2022-08-06T11:14:54.611Z,39.72
2022-08-06T11:17:24.832Z,38.48
2022-08-06T11:19:57.451Z,38.33
2022-08-06T11:22:35.658Z,37.13
2022-08-06T11:25:14.368Z,35.37
2022-08-06T11:28:05.100Z,33.05
2022-08-06T11:30:38.795Z,33.34
2022-08-06T11:33:05.197Z,33.39
2022-08-06T11:35:36.315Z,34.08
2022-08-06T11:38:24.129Z,31.33
2022-08-06T11:41:06.274Z,31.50
2022-08-06T11:43:39.850Z,32.25
2022-08-06T11:46:31.659Z,33.20
2022-08-06T11:49:05.930Z,32.91
2022-08-06T11:51:53.030Z,32.96
2022-08-06T11:54:39.133Z,32.13
2022-08-06T11:57:12.930Z,31.83
2022-08-06T11:59:48.939Z,32.18
2022-08-06T12:02:39.351Z,32.31
2022-08-06T12:05:08.888Z,32.52
2022-08-06T12:07:37.991Z,33.41
2022-08-06T12:10:17.762Z,32.89
2022-08-06T12:12:55.925Z,32.24
2022-08-06T12:15:59.690Z,31.23
2022-08-06T12:18:19.110Z,32.97
2022-08-06T12:20:49.543Z,32.19
2022-08-06T12:23:23.228Z,32.06
2022-08-06T12:25:56.904Z,32.40
2022-08-06T12:28:25.006Z,33.12
2022-08-06T12:30:52.509Z,32.52
2022-08-06T12:33:21.544Z,30.97
2022-08-06T12:35:56.337Z,31.42
2022-08-06T12:38:24.485Z,30.67
2022-08-06T12:40:55.026Z,31.05
2022-08-06T12:43:42.901Z,30.23
2022-08-06T12:46:11.437Z,30.97
2022-08-06T12:48:50.749Z,32.65
2022-08-06T12:51:17.596Z,31.66
2022-08-06T12:53:56.359Z,34.75
2022-08-06T12:56:32.094Z,33.69
2022-08-06T12:59:03.698Z,32.82
2022-08-06T13:02:10.288Z,33.91
2022-08-06T13:04:19.753Z,36.49
2022-08-06T13:06:48.615Z,38.25
2022-08-06T13:09:15.904Z,42.33
2022-08-06T13:11:42.637Z,45.98
2022-08-06T13:14:18.394Z,49.57
2022-08-06T13:16:54.566Z,54.22
2022-08-06T13:19:32.319Z,54.74
2022-08-06T13:22:07.139Z,51.24
2022-08-06T13:24:35.269Z,47.35
2022-08-06T13:27:02.691Z,44.34
2022-08-06T13:30:31.965Z,42.58
2022-08-06T13:32:27.863Z,38.37
2022-08-06T13:35:05.199Z,37.28
2022-08-06T13:37:56.785Z,38.31
2022-08-06T13:40:47.096Z,40.63
2022-08-06T13:43:39.049Z,40.13
2022-08-06T13:46:05.669Z,37.33
2022-08-06T13:48:32.213Z,39.59
2022-08-06T13:50:58.554Z,38.17
2022-08-06T13:53:24.976Z,36.53
2022-08-06T13:56:07.408Z,36.10
2022-08-06T13:58:37.729Z,34.39
2022-08-06T14:01:05.712Z,34.19
2022-08-06T14:03:38.426Z,32.79
2022-08-06T14:06:05.196Z,32.33
2022-08-06T14:08:35.733Z,32.91
2022-08-06T14:11:03.204Z,33.06
2022-08-06T14:13:30.176Z,31.86
2022-08-06T14:15:56.641Z,32.24
2022-08-06T14:18:28.482Z,31.00
2022-08-06T14:20:55.049Z,32.07
2022-08-06T14:23:21.409Z,31.77
2022-08-06T14:25:59.980Z,31.94
2022-08-06T14:28:29.628Z,34.28
2022-08-06T14:30:56.078Z,38.48
2022-08-06T14:33:36.540Z,43.18
2022-08-06T14:36:05.592Z,47.67
2022-08-06T14:38:34.555Z,51.15
2022-08-06T14:41:49.874Z,47.48
2022-08-06T14:44:25.925Z,49.72
2022-08-06T14:46:52.579Z,50.12
2022-08-06T14:49:18.878Z,47.42
2022-08-06T14:52:19.575Z,47.27
2022-08-06T14:54:32.941Z,47.98
2022-08-06T14:57:16.230Z,49.36
2022-08-06T14:59:49.201Z,52.26
2022-08-06T15:02:20.048Z,54.63
2022-08-06T15:04:52.182Z,54.35
2022-08-06T15:07:24.648Z,55.74
2022-08-06T15:10:06.420Z,57.00
2022-08-06T15:12:42.587Z,56.20
2022-08-06T15:15:17.645Z,45.89
2022-08-06T15:18:05.216Z,40.17
2022-08-06T15:20:31.683Z,37.99
2022-08-06T15:22:59.988Z,37.68
2022-08-06T15:26:00.454Z,39.33
2022-08-06T15:28:14.669Z,40.65
2022-08-06T15:30:41.080Z,41.79
2022-08-06T15:33:13.507Z,42.90
2022-08-06T15:35:43.678Z,45.72
2022-08-06T15:38:24.136Z,48.09
2022-08-06T15:40:50.718Z,53.43
2022-08-06T15:43:17.277Z,56.95
2022-08-06T15:45:52.168Z,60.45
2022-08-06T15:48:28.267Z,61.92
2022-08-06T15:51:27.171Z,64.50
2022-08-06T15:53:43.192Z,62.72
2022-08-06T15:56:09.821Z,59.01
2022-08-06T15:58:36.941Z,56.97
2022-08-06T16:01:08.506Z,58.41
2022-08-06T16:03:37.898Z,61.82
2022-08-06T16:06:25.985Z,58.45
2022-08-06T16:09:00.185Z,60.52
2022-08-06T16:11:27.082Z,64.15
2022-08-06T16:14:13.379Z,63.09
2022-08-06T16:16:45.903Z,60.81
2022-08-06T16:19:20.967Z,60.25
2022-08-06T16:21:48.268Z,60.88
2022-08-06T16:24:16.296Z,60.66
2022-08-06T16:26:49.495Z,62.54
2022-08-06T16:29:20.351Z,60.83
2022-08-06T16:31:48.479Z,62.44
2022-08-06T16:34:25.172Z,65.44
2022-08-06T16:36:56.397Z,68.75
2022-08-06T16:39:36.575Z,68.61
2022-08-06T16:42:06.989Z,69.79
2022-08-06T16:44:34.520Z,72.46
2022-08-06T16:47:05.083Z,68.65
2022-08-06T16:50:17.109Z,62.90
2022-08-06T16:52:43.773Z,58.98
2022-08-06T16:57:57.424Z,60.77
2022-08-06T17:00:59.351Z,62.72
2022-08-06T17:03:43.587Z,61.30
2022-08-06T17:06:17.753Z,60.68
2022-08-06T17:08:52.810Z,60.11
2022-08-06T17:11:46.277Z,61.34
2022-08-06T17:14:13.271Z,63.98
2022-08-06T17:16:40.851Z,68.94
2022-08-06T17:19:07.399Z,73.19
2022-08-06T17:21:53.245Z,72.06
2022-08-06T17:24:32.972Z,75.83
2022-08-06T17:27:04.189Z,77.92
2022-08-06T17:29:46.602Z,81.53
2022-08-06T17:32:30.007Z,88.87
2022-08-06T17:35:12.272Z,95.13
2022-08-06T17:37:43.411Z,97.54
2022-08-06T17:40:19.853Z,97.03
2022-08-06T17:42:57.888Z,98.37
2022-08-06T17:45:24.346Z,99.70
2022-08-06T17:47:51.710Z,100.00
2022-08-06T17:50:18.873Z,100.00
2022-08-06T17:52:47.508Z,100.00
2022-08-06T17:55:14.563Z,100.00
2022-08-06T17:58:32.458Z,100.00
2022-08-06T18:00:32.931Z,100.00
2022-08-06T18:03:01.510Z,100.00
2022-08-06T18:05:36.014Z,100.00
2022-08-06T18:08:15.134Z,100.00
2022-08-06T18:10:42.420Z,100.00
2022-08-06T18:13:10.987Z,100.00
2022-08-06T18:15:40.540Z,100.00
2022-08-06T18:18:09.910Z,100.00
2022-08-06T18:20:38.828Z,100.00
2022-08-06T18:23:06.025Z,100.00
2022-08-06T18:25:56.286Z,100.00
2022-08-06T18:28:36.541Z,100.00
2022-08-06T18:31:09.532Z,100.00
2022-08-06T18:33:36.878Z,100.00
2022-08-06T18:36:06.786Z,100.00
2022-08-06T18:38:33.904Z,100.00
2022-08-06T18:41:06.170Z,100.00
2022-08-06T18:43:54.552Z,100.00
2022-08-06T18:46:56.739Z,100.00
2022-08-06T18:49:09.404Z,100.00
2022-08-06T18:51:41.533Z,100.00
2022-08-06T18:54:12.701Z,100.00
2022-08-06T18:56:42.727Z,100.00
2022-08-06T18:59:23.763Z,100.00
2022-08-06T19:01:56.602Z,100.00
2022-08-06T19:04:27.288Z,100.00
2022-08-06T19:06:56.119Z,100.00
2022-08-06T19:09:23.977Z,100.00
2022-08-06T19:11:51.626Z,100.00
2022-08-06T19:14:20.044Z,100.00
2022-08-06T19:16:50.094Z,100.00
2022-08-06T19:19:16.964Z,100.00
2022-08-06T19:21:43.310Z,100.00
2022-08-06T19:24:35.327Z,100.00
2022-08-06T19:26:58.808Z,100.00
2022-08-06T19:29:57.728Z,100.00
2022-08-06T19:32:11.854Z,100.00
2022-08-06T19:34:55.423Z,100.00
2022-08-06T19:37:59.993Z,100.00
2022-08-06T19:40:29.559Z,100.00
2022-08-06T19:44:26.386Z,100.00
2022-08-06T19:46:31.147Z,100.00
2022-08-06T19:48:29.835Z,100.00
2022-08-06T19:50:56.503Z,100.00
2022-08-06T19:53:23.565Z,100.00
2022-08-06T19:56:06.562Z,100.00
2022-08-06T19:58:35.643Z,100.00
2022-08-06T20:01:28.080Z,100.00
2022-08-06T20:03:57.876Z,100.00
2022-08-06T20:06:40.189Z,100.00
2022-08-06T20:09:29.278Z,100.00
2022-08-06T20:12:03.983Z,100.00
2022-08-06T20:14:33.521Z,100.00
2022-08-06T20:16:59.970Z,100.00
2022-08-06T20:20:07.561Z,100.00
2022-08-06T20:22:13.893Z,100.00
2022-08-06T20:24:41.663Z,100.00
2022-08-06T20:27:08.236Z,100.00
2022-08-06T20:30:09.883Z,100.00
2022-08-06T20:32:22.277Z,100.00
2022-08-06T20:34:48.723Z,100.00
2022-08-06T20:37:15.835Z,100.00
2022-08-06T20:39:42.337Z,100.00
2022-08-06T20:42:14.855Z,100.00
2022-08-06T20:44:41.412Z,100.00
2022-08-06T20:47:45.920Z,100.00
2022-08-06T20:50:04.093Z,100.00
2022-08-06T20:52:31.835Z,100.00
2022-08-06T20:55:00.236Z,100.00
2022-08-06T20:57:37.653Z,100.00
2022-08-06T21:00:17.749Z,100.00
2022-08-06T21:03:02.978Z,100.00
2022-08-06T21:05:38.137Z,100.00
2022-08-06T21:08:17.844Z,100.00
2022-08-06T21:10:45.998Z,100.00
2022-08-06T21:13:13.049Z,100.00
2022-08-06T21:16:13.680Z,100.00
2022-08-06T21:18:41.985Z,100.00
2022-08-06T21:21:08.554Z,100.00
2022-08-06T21:23:55.466Z,100.00
2022-08-06T21:26:24.852Z,100.00
2022-08-06T21:28:54.252Z,100.00
2022-08-06T21:31:22.502Z,100.00
2022-08-06T21:33:53.949Z,100.00
2022-08-06T21:36:26.284Z,100.00
2022-08-06T21:38:57.140Z,100.00
2022-08-06T21:41:55.995Z,100.00
2022-08-06T21:44:17.521Z,100.00
2022-08-06T21:46:58.146Z,100.00
2022-08-06T21:50:05.396Z,100.00
2022-08-06T21:52:16.017Z,100.00
2022-08-06T21:54:42.966Z,100.00
2022-08-06T21:57:12.322Z,100.00
2022-08-06T21:59:46.068Z,100.00
2022-08-06T22:02:19.135Z,100.00
2022-08-06T22:04:58.872Z,100.00
2022-08-06T22:07:47.183Z,100.00
2022-08-06T22:10:13.806Z,100.00
2022-08-06T22:13:13.106Z,100.00
2022-08-06T22:15:34.228Z,100.00
2022-08-06T22:18:16.969Z,100.00
2022-08-06T22:20:45.131Z,100.00
2022-08-06T22:23:11.480Z,100.00
2022-08-06T22:25:38.394Z,100.00
2022-08-06T22:28:05.185Z,100.00
2022-08-06T22:30:36.903Z,100.00
2022-08-06T22:33:10.143Z,100.00
2022-08-06T22:35:38.780Z,100.00
2022-08-06T22:38:17.244Z,100.00
2022-08-06T22:40:48.292Z,100.00
2022-08-06T22:43:18.870Z,100.00
2022-08-06T22:46:02.354Z,100.00
2022-08-06T22:48:35.398Z,100.00
2022-08-06T22:51:03.631Z,100.00
2022-08-06T22:54:28.361Z,100.00
2022-08-06T22:56:28.268Z,100.00
2022-08-06T22:59:05.117Z,100.00
2022-08-06T23:02:06.374Z,100.00
2022-08-06T23:04:27.007Z,100.00
2022-08-06T23:06:55.600Z,100.00
2022-08-06T23:09:22.259Z,100.00
2022-08-06T23:11:58.970Z,100.00
2022-08-06T23:14:27.303Z,100.00
2022-08-06T23:16:58.940Z,100.00
2022-08-06T23:19:25.888Z,100.00
2022-08-06T23:22:02.217Z,100.00
2022-08-06T23:24:35.242Z,100.00
2022-08-06T23:27:03.416Z,100.00
2022-08-06T23:29:35.146Z,100.00
2022-08-06T23:32:16.878Z,100.00
2022-08-06T23:34:48.659Z,100.00
2022-08-06T23:37:16.410Z,100.00
2022-08-06T23:40:11.917Z,100.00
2022-08-06T23:42:29.911Z,100.00
2022-08-06T23:44:56.602Z,100.00
2022-08-06T23:47:54.379Z,100.00
2022-08-06T23:50:11.205Z,100.00
2022-08-06T23:52:41.657Z,100.00
2022-08-06T23:55:16.722Z,100.00
2022-08-06T23:57:56.718Z,100.00
